sensor_id;sensor_type;location;lat;lon;timestamp;pressure;altitude;pressure_sealevel;temperature;humidity
19005;BME280;9635;52.078;8.648;2023-02-18T00:00:42;100904.00;;;7.19;64.60
19005;BME280;9635;52.078;8.648;2023-02-18T00:05:45;100894.59;;;7.12;65.11
19005;BME280;9635;52.078;8.648;2023-02-18T00:10:47;100901.63;;;6.83;68.24
19005;BME280;9635;52.078;8.648;2023-02-18T00:15:52;100904.34;;;6.66;70.44
19005;BME280;9635;52.078;8.648;2023-02-18T00:20:54;100901.63;;;6.67;71.80
19005;BME280;9635;52.078;8.648;2023-02-18T00:25:58;100895.66;;;6.62;73.10
19005;BME280;9635;52.078;8.648;2023-02-18T00:31:06;100883.84;;;6.82;75.15
19005;BME280;9635;52.078;8.648;2023-02-18T00:36:13;100887.47;;;6.81;76.69
19005;BME280;9635;52.078;8.648;2023-02-18T00:41:16;100886.28;;;6.55;79.19
19005;BME280;9635;52.078;8.648;2023-02-18T00:46:22;100884.53;;;6.85;79.44
19005;BME280;9635;52.078;8.648;2023-02-18T00:51:27;100889.19;;;6.82;80.73
19005;BME280;9635;52.078;8.648;2023-02-18T00:56:31;100884.47;;;6.87;81.00
19005;BME280;9635;52.078;8.648;2023-02-18T01:01:36;100900.53;;;6.85;82.65
19005;BME280;9635;52.078;8.648;2023-02-18T01:06:41;100884.59;;;7.16;81.70
19005;BME280;9635;52.078;8.648;2023-02-18T01:11:44;100884.84;;;7.27;82.40
19005;BME280;9635;52.078;8.648;2023-02-18T01:16:48;100877.38;;;7.02;83.43
19005;BME280;9635;52.078;8.648;2023-02-18T01:21:51;100878.44;;;7.30;83.01
19005;BME280;9635;52.078;8.648;2023-02-18T01:26:54;100875.56;;;7.63;81.78
19005;BME280;9635;52.078;8.648;2023-02-18T01:31:58;100868.66;;;7.59;81.79
19005;BME280;9635;52.078;8.648;2023-02-18T01:37:01;100861.47;;;7.45;82.30
19005;BME280;9635;52.078;8.648;2023-02-18T01:42:04;100869.06;;;7.67;80.68
19005;BME280;9635;52.078;8.648;2023-02-18T01:47:09;100853.19;;;7.49;82.29
19005;BME280;9635;52.078;8.648;2023-02-18T01:52:17;100847.66;;;7.53;81.56
19005;BME280;9635;52.078;8.648;2023-02-18T01:57:23;100826.94;;;7.85;80.62
19005;BME280;9635;52.078;8.648;2023-02-18T02:02:29;100824.28;;;7.85;80.87
19005;BME280;9635;52.078;8.648;2023-02-18T02:07:33;100826.47;;;7.64;82.55
19005;BME280;9635;52.078;8.648;2023-02-18T02:12:46;100820.25;;;7.92;81.65
19005;BME280;9635;52.078;8.648;2023-02-18T02:18:11;100809.44;;;8.08;81.36
19005;BME280;9635;52.078;8.648;2023-02-18T02:23:39;100798.28;;;7.87;81.87
19005;BME280;9635;52.078;8.648;2023-02-18T02:28:59;100798.00;;;7.91;81.74
19005;BME280;9635;52.078;8.648;2023-02-18T02:34:42;100782.75;;;8.21;81.70
19005;BME280;9635;52.078;8.648;2023-02-18T02:39:56;100774.38;;;8.12;83.17
19005;BME280;9635;52.078;8.648;2023-02-18T02:45:09;100755.50;;;8.14;83.84
19005;BME280;9635;52.078;8.648;2023-02-18T02:50:17;100767.31;;;7.97;84.42
19005;BME280;9635;52.078;8.648;2023-02-18T02:55:23;100754.16;;;8.21;83.61
19005;BME280;9635;52.078;8.648;2023-02-18T03:00:37;100743.97;;;8.13;84.38
19005;BME280;9635;52.078;8.648;2023-02-18T03:06:01;100748.34;;;7.87;85.78
19005;BME280;9635;52.078;8.648;2023-02-18T03:11:12;100739.47;;;8.14;84.71
19005;BME280;9635;52.078;8.648;2023-02-18T03:16:24;100733.94;;;8.03;85.49
19005;BME280;9635;52.078;8.648;2023-02-18T03:21:32;100699.88;;;8.19;84.74
19005;BME280;9635;52.078;8.648;2023-02-18T03:26:42;100699.88;;;8.19;85.04
19005;BME280;9635;52.078;8.648;2023-02-18T03:31:51;100691.16;;;8.03;86.57
19005;BME280;9635;52.078;8.648;2023-02-18T03:37:00;100686.13;;;8.38;85.64
19005;BME280;9635;52.078;8.648;2023-02-18T03:42:04;100690.84;;;8.07;87.10
19005;BME280;9635;52.078;8.648;2023-02-18T03:47:08;100676.22;;;8.13;88.52
19005;BME280;9635;52.078;8.648;2023-02-18T03:52:12;100673.03;;;8.21;88.02
19005;BME280;9635;52.078;8.648;2023-02-18T03:57:15;100663.38;;;7.91;90.01
19005;BME280;9635;52.078;8.648;2023-02-18T04:02:18;100644.53;;;8.20;89.59
19005;BME280;9635;52.078;8.648;2023-02-18T04:07:22;100643.50;;;7.95;90.20
19005;BME280;9635;52.078;8.648;2023-02-18T04:12:25;100632.38;;;8.28;88.89
19005;BME280;9635;52.078;8.648;2023-02-18T04:17:28;100632.69;;;8.24;89.51
19005;BME280;9635;52.078;8.648;2023-02-18T04:22:32;100630.47;;;8.43;89.27
19005;BME280;9635;52.078;8.648;2023-02-18T04:27:35;100617.84;;;8.05;92.25
19005;BME280;9635;52.078;8.648;2023-02-18T04:32:38;100607.81;;;8.49;89.85
19005;BME280;9635;52.078;8.648;2023-02-18T04:37:42;100608.44;;;8.52;90.33
19005;BME280;9635;52.078;8.648;2023-02-18T04:42:45;100600.38;;;8.39;90.75
19005;BME280;9635;52.078;8.648;2023-02-18T04:47:47;100592.81;;;8.46;91.67
19005;BME280;9635;52.078;8.648;2023-02-18T04:52:52;100589.28;;;8.71;90.40
19005;BME280;9635;52.078;8.648;2023-02-18T04:57:54;100585.88;;;8.56;91.73
19005;BME280;9635;52.078;8.648;2023-02-18T05:02:57;100579.53;;;8.70;91.14
19005;BME280;9635;52.078;8.648;2023-02-18T05:08:01;100563.25;;;8.60;92.30
19005;BME280;9635;52.078;8.648;2023-02-18T05:13:05;100553.03;;;8.27;95.60
19005;BME280;9635;52.078;8.648;2023-02-18T05:18:08;100550.47;;;8.38;95.27
19005;BME280;9635;52.078;8.648;2023-02-18T05:23:12;100546.53;;;8.57;95.19
19005;BME280;9635;52.078;8.648;2023-02-18T05:28:15;100543.06;;;8.16;96.41
19005;BME280;9635;52.078;8.648;2023-02-18T05:33:18;100530.25;;;8.34;96.81
19005;BME280;9635;52.078;8.648;2023-02-18T05:38:22;100517.38;;;8.14;97.90
19005;BME280;9635;52.078;8.648;2023-02-18T05:43:25;100517.63;;;8.49;96.72
19005;BME280;9635;52.078;8.648;2023-02-18T05:48:28;100495.44;;;8.34;97.22
19005;BME280;9635;52.078;8.648;2023-02-18T05:53:32;100489.25;;;8.34;97.78
19005;BME280;9635;52.078;8.648;2023-02-18T05:58:35;100495.22;;;8.37;97.50
19005;BME280;9635;52.078;8.648;2023-02-18T06:03:38;100475.09;;;8.57;96.83
19005;BME280;9635;52.078;8.648;2023-02-18T06:08:42;100466.44;;;8.54;95.86
19005;BME280;9635;52.078;8.648;2023-02-18T06:13:45;100455.28;;;8.34;97.39
19005;BME280;9635;52.078;8.648;2023-02-18T06:18:48;100452.00;;;8.18;98.85
19005;BME280;9635;52.078;8.648;2023-02-18T06:23:52;100448.88;;;8.24;97.49
19005;BME280;9635;52.078;8.648;2023-02-18T06:28:55;100444.59;;;8.34;97.50
19005;BME280;9635;52.078;8.648;2023-02-18T06:33:58;100436.56;;;8.22;97.82
19005;BME280;9635;52.078;8.648;2023-02-18T06:39:03;100424.69;;;8.51;96.69
19005;BME280;9635;52.078;8.648;2023-02-18T06:44:06;100432.81;;;8.50;96.37
19005;BME280;9635;52.078;8.648;2023-02-18T06:49:09;100421.03;;;8.27;98.47
19005;BME280;9635;52.078;8.648;2023-02-18T06:54:13;100407.25;;;8.46;96.41
19005;BME280;9635;52.078;8.648;2023-02-18T06:59:16;100413.84;;;8.40;98.15
19005;BME280;9635;52.078;8.648;2023-02-18T07:04:19;100398.31;;;8.58;96.34
19005;BME280;9635;52.078;8.648;2023-02-18T07:09:23;100412.25;;;8.25;98.76
19005;BME280;9635;52.078;8.648;2023-02-18T07:14:26;100405.47;;;8.45;97.53
19005;BME280;9635;52.078;8.648;2023-02-18T07:19:29;100391.38;;;8.17;99.63
19005;BME280;9635;52.078;8.648;2023-02-18T07:24:33;100379.97;;;8.15;98.97
19005;BME280;9635;52.078;8.648;2023-02-18T07:29:36;100392.69;;;8.11;98.56
19005;BME280;9635;52.078;8.648;2023-02-18T07:34:39;100409.38;;;8.15;99.46
19005;BME280;9635;52.078;8.648;2023-02-18T07:39:44;100389.06;;;8.00;100.00
19005;BME280;9635;52.078;8.648;2023-02-18T07:44:47;100381.34;;;8.21;99.78
19005;BME280;9635;52.078;8.648;2023-02-18T07:49:50;100378.25;;;8.01;100.00
19005;BME280;9635;52.078;8.648;2023-02-18T07:54:54;100355.44;;;8.08;99.84
19005;BME280;9635;52.078;8.648;2023-02-18T07:59:57;100386.59;;;8.09;99.78
19005;BME280;9635;52.078;8.648;2023-02-18T08:04:59;100372.16;;;7.99;100.00
19005;BME280;9635;52.078;8.648;2023-02-18T08:10:05;100389.06;;;8.12;99.61
19005;BME280;9635;52.078;8.648;2023-02-18T08:15:08;100388.09;;;8.13;99.72
19005;BME280;9635;52.078;8.648;2023-02-18T08:20:11;100392.28;;;8.17;100.00
19005;BME280;9635;52.078;8.648;2023-02-18T08:25:16;100372.47;;;8.20;99.67
19005;BME280;9635;52.078;8.648;2023-02-18T08:30:30;100368.59;;;8.11;100.00
19005;BME280;9635;52.078;8.648;2023-02-18T08:35:33;100377.91;;;8.06;100.00
19005;BME280;9635;52.078;8.648;2023-02-18T08:40:37;100378.88;;;8.05;100.00
19005;BME280;9635;52.078;8.648;2023-02-18T08:45:41;100363.81;;;7.91;100.00
19005;BME280;9635;52.078;8.648;2023-02-18T08:50:44;100365.63;;;7.78;100.00
19005;BME280;9635;52.078;8.648;2023-02-18T08:55:48;100364.97;;;7.87;100.00
19005;BME280;9635;52.078;8.648;2023-02-18T09:00:51;100358.03;;;7.97;100.00
19005;BME280;9635;52.078;8.648;2023-02-18T09:05:55;100346.97;;;8.14;100.00
19005;BME280;9635;52.078;8.648;2023-02-18T09:11:01;100354.38;;;8.11;100.00
19005;BME280;9635;52.078;8.648;2023-02-18T09:16:07;100339.81;;;8.15;100.00
19005;BME280;9635;52.078;8.648;2023-02-18T09:21:12;100339.94;;;8.01;100.00
19005;BME280;9635;52.078;8.648;2023-02-18T09:26:18;100334.84;;;7.85;100.00
19005;BME280;9635;52.078;8.648;2023-02-18T09:31:25;100333.91;;;8.23;99.14
19005;BME280;9635;52.078;8.648;2023-02-18T09:36:28;100359.63;;;8.00;99.92
19005;BME280;9635;52.078;8.648;2023-02-18T09:41:40;100370.34;;;8.00;100.00
19005;BME280;9635;52.078;8.648;2023-02-18T09:46:47;100345.28;;;8.13;98.77
19005;BME280;9635;52.078;8.648;2023-02-18T09:51:53;100362.84;;;8.17;98.58
19005;BME280;9635;52.078;8.648;2023-02-18T09:56:58;100369.16;;;7.78;100.00
19005;BME280;9635;52.078;8.648;2023-02-18T10:02:02;100329.25;;;7.88;100.00
19005;BME280;9635;52.078;8.648;2023-02-18T10:07:05;100322.53;;;7.69;100.00
19005;BME280;9635;52.078;8.648;2023-02-18T10:12:18;100339.63;;;7.92;100.00
19005;BME280;9635;52.078;8.648;2023-02-18T10:17:24;100365.41;;;7.81;99.57
19005;BME280;9635;52.078;8.648;2023-02-18T10:22:28;100323.38;;;7.83;100.00
19005;BME280;9635;52.078;8.648;2023-02-18T10:27:34;100330.03;;;7.90;100.00
19005;BME280;9635;52.078;8.648;2023-02-18T10:32:42;100371.63;;;7.68;100.00
19005;BME280;9635;52.078;8.648;2023-02-18T10:37:56;100362.59;;;7.31;100.00
19005;BME280;9635;52.078;8.648;2023-02-18T10:43:11;100336.84;;;7.43;100.00
19005;BME280;9635;52.078;8.648;2023-02-18T10:48:28;100334.50;;;7.38;100.00
19005;BME280;9635;52.078;8.648;2023-02-18T10:53:36;100334.28;;;7.54;100.00
19005;BME280;9635;52.078;8.648;2023-02-18T10:58:45;100363.47;;;7.70;98.93
19005;BME280;9635;52.078;8.648;2023-02-18T11:03:49;100360.16;;;7.92;98.62
19005;BME280;9635;52.078;8.648;2023-02-18T11:08:54;100360.03;;;7.42;100.00
19005;BME280;9635;52.078;8.648;2023-02-18T11:14:00;100357.88;;;7.35;100.00
19005;BME280;9635;52.078;8.648;2023-02-18T11:19:04;100345.06;;;7.40;100.00
19005;BME280;9635;52.078;8.648;2023-02-18T11:24:09;100361.47;;;7.61;100.00
19005;BME280;9635;52.078;8.648;2023-02-18T11:29:19;100355.03;;;6.98;100.00
19005;BME280;9635;52.078;8.648;2023-02-18T11:34:26;100347.03;;;7.63;100.00
19005;BME280;9635;52.078;8.648;2023-02-18T11:39:29;100346.84;;;7.26;100.00
19005;BME280;9635;52.078;8.648;2023-02-18T11:44:36;100331.59;;;7.28;100.00
19005;BME280;9635;52.078;8.648;2023-02-18T11:49:41;100386.22;;;7.24;100.00
19005;BME280;9635;52.078;8.648;2023-02-18T11:54:58;100365.78;;;7.23;100.00
19005;BME280;9635;52.078;8.648;2023-02-18T12:00:15;100385.91;;;7.42;100.00
19005;BME280;9635;52.078;8.648;2023-02-18T12:05:21;100388.81;;;7.64;99.44
19005;BME280;9635;52.078;8.648;2023-02-18T12:10:27;100353.09;;;7.53;100.00
19005;BME280;9635;52.078;8.648;2023-02-18T12:15:42;100359.81;;;7.33;100.00
19005;BME280;9635;52.078;8.648;2023-02-18T12:21:03;100367.13;;;7.43;100.00
19005;BME280;9635;52.078;8.648;2023-02-18T12:26:20;100361.56;;;7.59;99.50
19005;BME280;9635;52.078;8.648;2023-02-18T12:31:44;100375.78;;;7.60;99.03
19005;BME280;9635;52.078;8.648;2023-02-18T12:37:00;100362.22;;;8.01;97.37
19005;BME280;9635;52.078;8.648;2023-02-18T12:42:19;100343.25;;;7.27;97.34
19005;BME280;9635;52.078;8.648;2023-02-18T12:47:37;100385.84;;;7.69;98.42
19005;BME280;9635;52.078;8.648;2023-02-18T12:52:51;100368.75;;;7.71;98.58
19005;BME280;9635;52.078;8.648;2023-02-18T12:58:02;100370.94;;;7.39;100.00
19005;BME280;9635;52.078;8.648;2023-02-18T13:03:26;100367.59;;;7.23;100.00
19005;BME280;9635;52.078;8.648;2023-02-18T13:08:42;100384.81;;;7.19;100.00
19005;BME280;9635;52.078;8.648;2023-02-18T13:13:54;100386.88;;;7.54;98.89
19005;BME280;9635;52.078;8.648;2023-02-18T13:19:06;100397.72;;;7.78;98.90
19005;BME280;9635;52.078;8.648;2023-02-18T13:24:16;100403.03;;;7.52;100.00
19005;BME280;9635;52.078;8.648;2023-02-18T13:29:25;100379.94;;;7.51;99.46
19005;BME280;9635;52.078;8.648;2023-02-18T13:34:35;100387.00;;;7.65;99.20
19005;BME280;9635;52.078;8.648;2023-02-18T13:39:46;100388.72;;;7.91;98.23
19005;BME280;9635;52.078;8.648;2023-02-18T13:45:03;100369.34;;;7.62;99.26
19005;BME280;9635;52.078;8.648;2023-02-18T13:50:26;100381.47;;;7.68;99.87
19005;BME280;9635;52.078;8.648;2023-02-18T13:55:34;100390.19;;;7.44;99.96
19005;BME280;9635;52.078;8.648;2023-02-18T14:00:46;100387.13;;;7.89;98.40
19005;BME280;9635;52.078;8.648;2023-02-18T14:05:54;100383.59;;;7.76;98.35
19005;BME280;9635;52.078;8.648;2023-02-18T14:22:43;100385.94;;;8.18;95.97
19005;BME280;9635;52.078;8.648;2023-02-18T14:27:50;100391.50;;;8.28;94.66
19005;BME280;9635;52.078;8.648;2023-02-18T14:32:57;100397.81;;;7.89;96.05
19005;BME280;9635;52.078;8.648;2023-02-18T14:44:18;100410.69;;;8.09;94.12
19005;BME280;9635;52.078;8.648;2023-02-18T14:49:35;100418.16;;;8.04;94.10
19005;BME280;9635;52.078;8.648;2023-02-18T14:54:39;100421.69;;;7.92;95.79
19005;BME280;9635;52.078;8.648;2023-02-18T14:59:44;100432.50;;;8.03;95.22
19005;BME280;9635;52.078;8.648;2023-02-18T15:04:49;100420.97;;;7.90;95.03
19005;BME280;9635;52.078;8.648;2023-02-18T15:09:53;100415.72;;;8.01;94.74
19005;BME280;9635;52.078;8.648;2023-02-18T15:15:01;100423.50;;;8.17;95.10
19005;BME280;9635;52.078;8.648;2023-02-18T15:20:06;100431.41;;;8.06;95.58
19005;BME280;9635;52.078;8.648;2023-02-18T15:25:11;100439.44;;;8.06;94.65
19005;BME280;9635;52.078;8.648;2023-02-18T15:30:20;100433.34;;;8.16;93.49
19005;BME280;9635;52.078;8.648;2023-02-18T15:35:28;100453.13;;;7.76;95.77
19005;BME280;9635;52.078;8.648;2023-02-18T15:40:33;100436.91;;;8.04;93.56
19005;BME280;9635;52.078;8.648;2023-02-18T15:45:41;100440.94;;;7.97;95.26
19005;BME280;9635;52.078;8.648;2023-02-18T15:50:48;100437.94;;;8.14;94.82
19005;BME280;9635;52.078;8.648;2023-02-18T15:55:53;100442.25;;;8.04;93.79
19005;BME280;9635;52.078;8.648;2023-02-18T16:00:59;100450.06;;;8.07;94.46
19005;BME280;9635;52.078;8.648;2023-02-18T16:06:10;100451.00;;;7.93;95.12
19005;BME280;9635;52.078;8.648;2023-02-18T16:11:13;100439.88;;;8.38;92.95
19005;BME280;9635;52.078;8.648;2023-02-18T16:16:22;100462.34;;;7.97;94.50
19005;BME280;9635;52.078;8.648;2023-02-18T16:21:31;100453.91;;;8.16;93.61
19005;BME280;9635;52.078;8.648;2023-02-18T16:26:40;100480.34;;;8.08;93.74
19005;BME280;9635;52.078;8.648;2023-02-18T16:31:46;100484.59;;;7.85;95.25
19005;BME280;9635;52.078;8.648;2023-02-18T16:36:49;100483.09;;;8.06;95.52
19005;BME280;9635;52.078;8.648;2023-02-18T16:42:24;100477.22;;;7.88;93.99
19005;BME280;9635;52.078;8.648;2023-02-18T16:47:28;100489.97;;;8.10;94.70
19005;BME280;9635;52.078;8.648;2023-02-18T16:52:31;100484.31;;;8.15;94.41
19005;BME280;9635;52.078;8.648;2023-02-18T16:57:34;100496.19;;;8.36;93.65
19005;BME280;9635;52.078;8.648;2023-02-18T17:02:38;100501.19;;;7.90;97.27
19005;BME280;9635;52.078;8.648;2023-02-18T17:07:41;100500.31;;;7.89;96.72
19005;BME280;9635;52.078;8.648;2023-02-18T17:12:44;100509.69;;;8.09;94.86
19005;BME280;9635;52.078;8.648;2023-02-18T17:17:48;100501.75;;;8.08;95.47
19005;BME280;9635;52.078;8.648;2023-02-18T17:22:51;100507.78;;;7.84;95.09
19005;BME280;9635;52.078;8.648;2023-02-18T17:27:54;100522.63;;;7.76;96.13
19005;BME280;9635;52.078;8.648;2023-02-18T17:32:59;100519.72;;;8.06;93.70
19005;BME280;9635;52.078;8.648;2023-02-18T17:38:07;100531.06;;;8.09;94.10
19005;BME280;9635;52.078;8.648;2023-02-18T17:43:12;100527.22;;;8.39;92.32
19005;BME280;9635;52.078;8.648;2023-02-18T17:48:20;100542.16;;;7.90;93.86
19005;BME280;9635;52.078;8.648;2023-02-18T17:53:23;100540.06;;;8.08;93.08
19005;BME280;9635;52.078;8.648;2023-02-18T17:58:26;100535.34;;;7.99;93.71
19005;BME280;9635;52.078;8.648;2023-02-18T18:03:31;100543.09;;;8.29;91.59
19005;BME280;9635;52.078;8.648;2023-02-18T18:08:33;100553.56;;;8.07;91.81
19005;BME280;9635;52.078;8.648;2023-02-18T18:13:36;100543.19;;;8.15;91.84
19005;BME280;9635;52.078;8.648;2023-02-18T18:18:41;100547.34;;;7.66;92.20
19005;BME280;9635;52.078;8.648;2023-02-18T18:23:43;100556.28;;;7.92;91.88
19005;BME280;9635;52.078;8.648;2023-02-18T18:28:46;100555.75;;;8.00;90.97
19005;BME280;9635;52.078;8.648;2023-02-18T18:33:52;100544.25;;;8.12;89.50
19005;BME280;9635;52.078;8.648;2023-02-18T18:38:55;100552.09;;;7.88;90.66
19005;BME280;9635;52.078;8.648;2023-02-18T18:43:57;100552.06;;;7.76;91.01
19005;BME280;9635;52.078;8.648;2023-02-18T18:49:02;100569.22;;;7.86;90.46
19005;BME280;9635;52.078;8.648;2023-02-18T18:54:04;100563.03;;;7.58;89.81
19005;BME280;9635;52.078;8.648;2023-02-18T18:59:07;100563.09;;;7.84;88.46
19005;BME280;9635;52.078;8.648;2023-02-18T19:04:11;100569.56;;;7.94;88.19
19005;BME280;9635;52.078;8.648;2023-02-18T19:09:14;100577.59;;;7.94;88.47
19005;BME280;9635;52.078;8.648;2023-02-18T19:14:17;100579.53;;;8.05;88.01
19005;BME280;9635;52.078;8.648;2023-02-18T19:19:23;100576.00;;;8.04;87.08
19005;BME280;9635;52.078;8.648;2023-02-18T19:24:26;100573.91;;;8.35;86.28
19005;BME280;9635;52.078;8.648;2023-02-18T19:29:29;100573.78;;;8.11;87.92
19005;BME280;9635;52.078;8.648;2023-02-18T19:34:34;100571.94;;;7.99;87.12
19005;BME280;9635;52.078;8.648;2023-02-18T19:39:36;100570.66;;;8.17;87.11
19005;BME280;9635;52.078;8.648;2023-02-18T19:44:39;100574.84;;;7.81;87.87
19005;BME280;9635;52.078;8.648;2023-02-18T19:49:44;100571.34;;;8.33;86.69
19005;BME280;9635;52.078;8.648;2023-02-18T19:54:47;100570.47;;;8.33;86.58
19005;BME280;9635;52.078;8.648;2023-02-18T19:59:50;100572.94;;;8.23;87.17
19005;BME280;9635;52.078;8.648;2023-02-18T20:04:55;100572.06;;;8.10;87.76
19005;BME280;9635;52.078;8.648;2023-02-18T20:09:57;100561.13;;;8.00;88.29
19005;BME280;9635;52.078;8.648;2023-02-18T20:15:01;100553.53;;;8.20;87.79
19005;BME280;9635;52.078;8.648;2023-02-18T20:20:06;100574.69;;;7.97;89.54
19005;BME280;9635;52.078;8.648;2023-02-18T20:25:09;100558.44;;;8.00;88.92
19005;BME280;9635;52.078;8.648;2023-02-18T20:30:13;100556.63;;;8.01;89.76
19005;BME280;9635;52.078;8.648;2023-02-18T20:35:17;100550.44;;;8.13;89.83
19005;BME280;9635;52.078;8.648;2023-02-18T20:40:20;100531.59;;;8.14;88.95
19005;BME280;9635;52.078;8.648;2023-02-18T20:45:23;100548.41;;;8.04;89.23
19005;BME280;9635;52.078;8.648;2023-02-18T20:50:27;100542.53;;;8.24;88.88
19005;BME280;9635;52.078;8.648;2023-02-18T20:55:30;100537.41;;;8.21;88.42
19005;BME280;9635;52.078;8.648;2023-02-18T21:00:33;100532.13;;;8.20;87.51
19005;BME280;9635;52.078;8.648;2023-02-18T21:05:37;100526.59;;;8.10;88.33
19005;BME280;9635;52.078;8.648;2023-02-18T21:10:40;100526.03;;;8.05;87.75
19005;BME280;9635;52.078;8.648;2023-02-18T21:15:43;100529.44;;;7.94;89.88
19005;BME280;9635;52.078;8.648;2023-02-18T21:20:48;100530.53;;;8.17;89.59
19005;BME280;9635;52.078;8.648;2023-02-18T21:25:50;100541.34;;;8.15;90.25
19005;BME280;9635;52.078;8.648;2023-02-18T21:30:53;100528.06;;;8.01;91.04
19005;BME280;9635;52.078;8.648;2023-02-18T21:36:00;100516.19;;;8.05;92.21
19005;BME280;9635;52.078;8.648;2023-02-18T21:41:03;100514.94;;;8.24;90.36
19005;BME280;9635;52.078;8.648;2023-02-18T21:46:07;100516.50;;;8.13;91.72
19005;BME280;9635;52.078;8.648;2023-02-18T21:51:12;100508.34;;;7.89;92.41
19005;BME280;9635;52.078;8.648;2023-02-18T21:56:37;100510.50;;;7.97;92.25
19005;BME280;9635;52.078;8.648;2023-02-18T22:01:40;100500.47;;;8.13;90.41
19005;BME280;9635;52.078;8.648;2023-02-18T22:06:45;100471.84;;;7.76;91.44
19005;BME280;9635;52.078;8.648;2023-02-18T22:11:47;100491.22;;;7.92;90.92
19005;BME280;9635;52.078;8.648;2023-02-18T22:16:52;100494.56;;;7.95;91.48
19005;BME280;9635;52.078;8.648;2023-02-18T22:21:56;100493.63;;;8.09;91.02
19005;BME280;9635;52.078;8.648;2023-02-18T22:26:59;100487.81;;;8.03;90.58
19005;BME280;9635;52.078;8.648;2023-02-18T22:32:03;100490.91;;;7.97;90.20
19005;BME280;9635;52.078;8.648;2023-02-18T22:37:07;100483.75;;;8.23;88.63
19005;BME280;9635;52.078;8.648;2023-02-18T22:42:10;100486.66;;;8.07;89.86
19005;BME280;9635;52.078;8.648;2023-02-18T22:47:13;100476.59;;;8.10;89.13
19005;BME280;9635;52.078;8.648;2023-02-18T22:52:17;100467.06;;;8.06;88.75
19005;BME280;9635;52.078;8.648;2023-02-18T22:57:20;100449.09;;;8.21;88.00
19005;BME280;9635;52.078;8.648;2023-02-18T23:02:23;100451.44;;;8.26;87.81
19005;BME280;9635;52.078;8.648;2023-02-18T23:07:27;100441.91;;;7.83;88.90
19005;BME280;9635;52.078;8.648;2023-02-18T23:12:30;100434.75;;;8.22;87.22
19005;BME280;9635;52.078;8.648;2023-02-18T23:17:32;100428.53;;;8.22;86.42
19005;BME280;9635;52.078;8.648;2023-02-18T23:22:37;100409.50;;;8.26;86.46
19005;BME280;9635;52.078;8.648;2023-02-18T23:27:42;100399.84;;;8.11;86.47
19005;BME280;9635;52.078;8.648;2023-02-18T23:32:45;100396.66;;;8.06;87.75
19005;BME280;9635;52.078;8.648;2023-02-18T23:37:49;100399.00;;;7.98;88.40
19005;BME280;9635;52.078;8.648;2023-02-18T23:43:06;100386.78;;;8.19;87.29
19005;BME280;9635;52.078;8.648;2023-02-18T23:48:09;100386.06;;;8.04;88.16
19005;BME280;9635;52.078;8.648;2023-02-18T23:53:13;100382.09;;;7.97;89.41
19005;BME280;9635;52.078;8.648;2023-02-18T23:58:16;100379.44;;;8.10;89.90
